Vardehorn — LLAE — position and weather

sailwx.info

Track history (hours):
 
Tides and Currents Weather Stations Pressure Air Temp Water Temp Dewpoint Dewpoint Depression Visibility Wind Speed Wind Dir Waves Ship Positions

Vardehorn

Last reported at 2017-Oct-20 02:59 UTC. Time now 2017-Oct-20 03:29 UTC.
Position N 68°06' E 016°21'.

Length 112 m; draft 3.6 m.

Type: Passenger vessel. MMSI: 259650000.

Date/timePositionNaut miles runAvg speedWind from/ knotsBaromVisibWave heightAir tempDewpointWater temp
2017-Oct-20 02:59N 68°06' E 016°21'0 0.0
2017-Oct-20 02:29N 68°06' E 016°21'0 0.0
2017-Oct-20 01:59N 68°06' E 016°21'3 6.4
2017-Oct-20 01:30N 68°05' E 016°13'4 7.8
2017-Oct-20 01:00N 68°03' E 016°05'2 4.4
2017-Oct-20 00:31N 68°04' E 016°09'5 9.3
2017-Oct-20 00:01N 68°06' E 016°21'2 4.0
2017-Oct-19 23:31N 68°06' E 016°16'510.2
2017-Oct-19 23:00N 68°03' E 016°05'2 4.3
2017-Oct-19 22:30N 68°04' E 016°09'5 9.3
2017-Oct-19 22:00N 68°06' E 016°21'2 3.9
2017-Oct-19 21:31N 68°06' E 016°16'510.3
2017-Oct-19 21:00N 68°03' E 016°05'2 4.9
2017-Oct-19 20:30N 68°04' E 016°10'4 9.0
2017-Oct-19 20:01N 68°06' E 016°21'2 4.2
2017-Oct-19 19:30N 68°06' E 016°16'510.1
2017-Oct-19 19:00N 68°03' E 016°05'2 4.5
2017-Oct-19 18:30N 68°04' E 016°09'5 9.3
2017-Oct-19 18:00N 68°06' E 016°21'2 4.8
2017-Oct-19 17:30N 68°06' E 016°15'5 9.6
2017-Oct-19 17:00N 68°03' E 016°05'2 4.9
2017-Oct-19 16:30N 68°04' E 016°10'4 8.7
2017-Oct-19 16:00N 68°06' E 016°21'2 4.4
2017-Oct-19 15:31N 68°06' E 016°16'5 9.9
2017-Oct-19 15:00N 68°03' E 016°05'2 4.8
2017-Oct-19 14:30N 68°04' E 016°10'4 9.0
2017-Oct-19 14:00N 68°06' E 016°21'2 4.4
2017-Oct-19 13:30N 68°06' E 016°15'5 9.9
2017-Oct-19 13:00N 68°03' E 016°05'3 5.5
2017-Oct-19 12:30N 68°05' E 016°11'4 8.3
2017-Oct-19 12:00N 68°06' E 016°21'2 5.0
2017-Oct-19 11:30N 68°06' E 016°15'5 9.5
2017-Oct-19 11:01N 68°03' E 016°05'2 4.6
2017-Oct-19 10:30N 68°04' E 016°10'5 9.0
2017-Oct-19 10:00N 68°06' E 016°21'2 4.7
2017-Oct-19 09:30N 68°06' E 016°15'5 9.7
2017-Oct-19 09:00N 68°03' E 016°05'2 4.8
2017-Oct-19 08:30N 68°04' E 016°10'4 9.0
2017-Oct-19 08:01N 68°06' E 016°21'3 5.0
2017-Oct-19 07:30N 68°06' E 016°15'5 9.3
2017-Oct-19 07:00N 68°03' E 016°05'2 4.6
2017-Oct-19 06:30N 68°04' E 016°10'5 9.2
2017-Oct-19 06:01N 68°06' E 016°21'1 1.8
2017-Oct-19 05:31N 68°06' E 016°19'510.3
2017-Oct-19 05:01N 68°03' E 016°06'2 3.1
2017-Oct-19 04:30N 68°04' E 016°10'4 8.9
2017-Oct-19 04:00N 68°06' E 016°21'0 0.0
2017-Oct-19 03:28N 68°06' E 016°21'0 0.0
2017-Oct-19 02:55N 68°06' E 016°21'0 0.0
2017-Oct-19 02:28N 68°06' E 016°21'0 0.0
2017-Oct-19 01:58N 68°06' E 016°21'2 4.1
2017-Oct-19 01:31N 68°06' E 016°16'510.4
2017-Oct-19 01:00N 68°03' E 016°05'2 4.7
2017-Oct-19 00:31N 68°04' E 016°10'5 9.1
2017-Oct-19 00:01N 68°06' E 016°21'3 6.5
2017-Oct-18 23:30N 68°05' E 016°13'4 7.6
2017-Oct-18 23:00N 68°03' E 016°05'3 5.5
2017-Oct-18 22:31N 68°05' E 016°11'4 8.1
2017-Oct-18 21:59N 68°06' E 016°21'3 5.4
2017-Oct-18 21:30N 68°06' E 016°14'4 8.7
2017-Oct-18 21:00N 68°03' E 016°05'2 4.7
2017-Oct-18 20:30N 68°04' E 016°10'5 9.2
2017-Oct-18 20:01N 68°06' E 016°21'3 6.3
2017-Oct-18 19:30N 68°05' E 016°13'4 7.7
2017-Oct-18 19:00N 68°03' E 016°05'3 5.8
2017-Oct-18 18:30N 68°05' E 016°11'4 7.9
2017-Oct-18 18:00N 68°06' E 016°21'2 4.9
2017-Oct-18 17:29N 68°06' E 016°15'5 9.7
2017-Oct-18 17:00N 68°03' E 016°05'2 4.7
2017-Oct-18 16:30N 68°04' E 016°10'5 9.1
2017-Oct-18 16:00N 68°06' E 016°21'2 4.5
2017-Oct-18 15:30N 68°06' E 016°15'5 9.8
2017-Oct-18 15:00N 68°03' E 016°05'7 6.7
2017-Oct-18 14:00N 68°06' E 016°21'2 4.6
2017-Oct-18 13:30N 68°06' E 016°15'5 9.9
2017-Oct-18 13:00N 68°03' E 016°05'2 4.8
2017-Oct-18 12:30N 68°04' E 016°10'4 8.9
2017-Oct-18 12:00N 68°06' E 016°21'2 5.0
2017-Oct-18 11:30N 68°06' E 016°15'5 9.3
2017-Oct-18 11:00N 68°03' E 016°05'2 4.6
2017-Oct-18 10:30N 68°04' E 016°10'5 9.1
2017-Oct-18 10:00N 68°06' E 016°21'2 4.4
2017-Oct-18 09:30N 68°06' E 016°16'510.1
2017-Oct-18 09:00N 68°03' E 016°05'2 4.5
2017-Oct-18 08:30N 68°04' E 016°10'5 9.0
2017-Oct-18 08:00N 68°06' E 016°21'2 4.8
2017-Oct-18 07:31N 68°06' E 016°15'5 9.7
2017-Oct-18 07:01N 68°03' E 016°05'2 4.3
2017-Oct-18 06:30N 68°04' E 016°09'5 9.6
2017-Oct-18 06:01N 68°06' E 016°21'1 2.8
2017-Oct-18 05:30N 68°06' E 016°18'510.4
2017-Oct-18 05:00N 68°03' E 016°05'2 4.0
2017-Oct-18 04:30N 68°04' E 016°10'5 9.0
2017-Oct-18 04:00N 68°06' E 016°21'0 0.0
2017-Oct-18 03:29N 68°06' E 016°21'0 0.0
2017-Oct-18 02:59N 68°06' E 016°21'0 0.0
2017-Oct-18 02:29N 68°06' E 016°21'0 0.0
2017-Oct-18 01:59N 68°06' E 016°21'3 5.8
2017-Oct-18 01:29N 68°06' E 016°14'4 8.7
2017-Oct-18 01:00N 68°03' E 016°05'2 4.4
2017-Oct-18 00:30N 68°04' E 016°09'5 9.1
2017-Oct-17 23:59N 68°06' E 016°21'3 6.1
2017-Oct-17 23:30N 68°06' E 016°13'4 8.1
2017-Oct-17 23:00N 68°03' E 016°05'3 6.6
2017-Oct-17 22:30N 68°05' E 016°12'4 7.4
2017-Oct-17 22:00N 68°06' E 016°21'3 5.8
2017-Oct-17 21:30N 68°05' E 016°14'4 8.4
2017-Oct-17 21:00N 68°03' E 016°05'2 4.9
2017-Oct-17 20:30N 68°04' E 016°10'4 8.8
2017-Oct-17 20:00N 68°06' E 016°21'2 4.5
2017-Oct-17 19:30N 68°06' E 016°15'510.0
2017-Oct-17 19:00N 68°03' E 016°05'2 4.3
2017-Oct-17 18:30N 68°04' E 016°09'5 9.4
2017-Oct-17 18:00N 68°06' E 016°21'2 4.7
2017-Oct-17 17:30N 68°06' E 016°15'5 9.8
2017-Oct-17 17:00N 68°03' E 016°05'3 5.1
2017-Oct-17 16:30N 68°05' E 016°10'4 8.8
2017-Oct-17 16:00N 68°06' E 016°21'3 5.7
2017-Oct-17 15:30N 68°06' E 016°14'4 8.4
2017-Oct-17 15:00N 68°03' E 016°05'3 5.9
2017-Oct-17 14:30N 68°05' E 016°11'4 8.0
2017-Oct-17 14:00N 68°06' E 016°21'2 4.6
2017-Oct-17 13:30N 68°06' E 016°15'5 9.9
2017-Oct-17 13:00N 68°03' E 016°05'2 4.9
2017-Oct-17 12:30N 68°05' E 016°10'4 9.1
2017-Oct-17 12:00N 68°06' E 016°21'2 4.8
2017-Oct-17 11:30N 68°06' E 016°15'5 9.4
2017-Oct-17 11:00N 68°03' E 016°05'2 4.6
2017-Oct-17 10:30N 68°04' E 016°10'5 9.2
2017-Oct-17 10:00N 68°06' E 016°21'2 4.9
2017-Oct-17 09:30N 68°06' E 016°15'5 9.5
2017-Oct-17 09:00N 68°03' E 016°05'3 5.1
2017-Oct-17 08:30N 68°05' E 016°10'4 8.7
2017-Oct-17 08:00N 68°06' E 016°21'3 5.4
2017-Oct-17 07:30N 68°06' E 016°14'4 8.8
2017-Oct-17 07:00N 68°03' E 016°05'2 4.5
2017-Oct-17 06:30N 68°04' E 016°09'5 9.3
2017-Oct-17 06:00N 68°06' E 016°21'1 1.1
2017-Oct-17 05:30N 68°05' E 016°20'510.0
2017-Oct-17 05:00N 68°04' E 016°07'1 2.0
2017-Oct-17 04:30N 68°04' E 016°09'5 9.4
2017-Oct-17 04:00N 68°06' E 016°21'0 0.0
2017-Oct-17 03:16N 68°06' E 016°21'0 0.0
2017-Oct-17 02:58N 68°06' E 016°21'0 0.0
2017-Oct-17 02:28N 68°06' E 016°21'0 0.0
2017-Oct-17 01:58N 68°06' E 016°21'3 5.7
2017-Oct-17 01:30N 68°06' E 016°14'4 9.0
2017-Oct-17 01:00N 68°03' E 016°05'2 4.6
2017-Oct-17 00:30N 68°04' E 016°10'5 9.1
2017-Oct-17 00:00N 68°06' E 016°21'3 5.2
2017-Oct-16 23:29N 68°06' E 016°14'4 8.9
2017-Oct-16 23:00N 68°03' E 016°05'2 5.1
2017-Oct-16 22:30N 68°04' E 016°10'4 8.8
2017-Oct-16 22:00N 68°06' E 016°21'3 5.1
2017-Oct-16 21:30N 68°06' E 016°14'5 9.1
2017-Oct-16 21:00N 68°03' E 016°05'3 5.3
2017-Oct-16 20:30N 68°05' E 016°10'4 8.7
2017-Oct-16 20:00N 68°06' E 016°21'3 5.0
2017-Oct-16 19:29N 68°06' E 016°14'5 9.2
2017-Oct-16 18:59N 68°03' E 016°05'2 4.8
2017-Oct-16 18:30N 68°04' E 016°10'5 8.8
2017-Oct-16 17:59N 68°06' E 016°21'3 5.1
2017-Oct-16 17:29N 68°06' E 016°15'5 9.6
2017-Oct-16 17:00N 68°03' E 016°05'2 4.7
2017-Oct-16 16:30N 68°04' E 016°10'5 9.0
2017-Oct-16 16:00N 68°06' E 016°21'2 4.2
2017-Oct-16 15:30N 68°06' E 016°16'510.0
2017-Oct-16 15:00N 68°03' E 016°05'7 6.8
2017-Oct-16 14:00N 68°06' E 016°21'2 5.0
2017-Oct-16 13:30N 68°06' E 016°15'5 9.2
2017-Oct-16 12:59N 68°03' E 016°05'3 5.1
2017-Oct-16 12:30N 68°05' E 016°10'4 8.8
2017-Oct-16 12:00N 68°06' E 016°21'2 4.8
2017-Oct-16 11:30N 68°06' E 016°15'5 9.6
2017-Oct-16 11:00N 68°03' E 016°05'2 4.6
2017-Oct-16 10:30N 68°04' E 016°10'5 8.8
2017-Oct-16 10:00N 68°06' E 016°21'3 5.3
2017-Oct-16 09:30N 68°06' E 016°14'5 8.9
2017-Oct-16 09:00N 68°03' E 016°05'2 5.0
2017-Oct-16 08:30N 68°04' E 016°10'4 8.8
2017-Oct-16 08:00N 68°06' E 016°21'2 5.0
2017-Oct-16 07:30N 68°06' E 016°15'5 9.2
2017-Oct-16 07:00N 68°03' E 016°05'2 4.1
2017-Oct-16 06:30N 68°04' E 016°09'5 9.5
2017-Oct-16 06:00N 68°06' E 016°21'1 1.5
2017-Oct-16 05:30N 68°06' E 016°19'5 9.9
2017-Oct-16 05:00N 68°04' E 016°07'1 1.7
2017-Oct-16 04:30N 68°04' E 016°09'5 9.0
2017-Oct-16 03:58N 68°06' E 016°21'0 0.0
2017-Oct-16 03:28N 68°06' E 016°21'0 0.0
2017-Oct-16 02:58N 68°06' E 016°21'0 0.0
2017-Oct-16 02:25N 68°06' E 016°21'0 0.0
2017-Oct-16 01:58N 68°06' E 016°21'2 4.5
2017-Oct-16 01:30N 68°06' E 016°16'510.1
2017-Oct-16 01:00N 68°03' E 016°05'2 4.0
2017-Oct-16 00:30N 68°04' E 016°09'5 9.9
2017-Oct-16 00:00N 68°06' E 016°21'3 5.0
2017-Oct-15 23:30N 68°06' E 016°15'5 9.5
2017-Oct-15 23:00N 68°03' E 016°05'2 4.2
2017-Oct-15 22:30N 68°04' E 016°09'5 9.5
2017-Oct-15 22:00N 68°06' E 016°21'2 4.7
2017-Oct-15 21:30N 68°06' E 016°15'5 9.9
2017-Oct-15 21:00N 68°03' E 016°05'2 4.3
2017-Oct-15 20:30N 68°04' E 016°09'5 9.6
2017-Oct-15 20:00N 68°06' E 016°21'3 5.1
2017-Oct-15 19:30N 68°06' E 016°14'5 9.2
2017-Oct-15 19:00N 68°03' E 016°05'3 6.4
2017-Oct-15 18:30N 68°05' E 016°11'4 7.6
2017-Oct-15 18:00N 68°06' E 016°21'2 5.0
2017-Oct-15 17:30N 68°06' E 016°15'5 9.4
2017-Oct-15 17:00N 68°03' E 016°05'2 4.7
2017-Oct-15 16:30N 68°04' E 016°10'4 8.8
2017-Oct-15 16:00N 68°06' E 016°21'2 4.4
2017-Oct-15 15:30N 68°06' E 016°16'510.0
2017-Oct-15 15:00N 68°03' E 016°05'7 6.8
2017-Oct-15 14:00N 68°06' E 016°21'2 4.6
2017-Oct-15 13:30N 68°06' E 016°15'5 9.9
2017-Oct-15 13:00N 68°03' E 016°05'2 4.2
2017-Oct-15 12:30N 68°04' E 016°09'5 9.2
2017-Oct-15 11:59N 68°06' E 016°21'2 4.8
2017-Oct-15 11:30N 68°06' E 016°15'5 9.5
2017-Oct-15 11:00N 68°03' E 016°05'2 4.2
2017-Oct-15 10:30N 68°04' E 016°09'5 9.4
2017-Oct-15 09:59N 68°06' E 016°21'3 5.2
2017-Oct-15 09:30N 68°06' E 016°15'5 9.4
2017-Oct-15 09:00N 68°03' E 016°05'2 5.0
2017-Oct-15 08:30N 68°04' E 016°10'4 8.8
2017-Oct-15 08:00N 68°06' E 016°21'3 4.9
2017-Oct-15 07:30N 68°06' E 016°15'5 9.2
2017-Oct-15 07:00N 68°03' E 016°05'2 4.1
2017-Oct-15 06:30N 68°04' E 016°09'5 9.8
2017-Oct-15 06:00N 68°06' E 016°21'1 2.5
2017-Oct-15 05:30N 68°06' E 016°18'4 8.6
2017-Oct-15 05:00N 68°04' E 016°08'1 1.3
2017-Oct-15 04:30N 68°04' E 016°09'5 9.5
2017-Oct-15 03:59N 68°06' E 016°21'0 0.0
2017-Oct-15 03:28N 68°06' E 016°21'0 0.0
2017-Oct-15 02:58N 68°06' E 016°21'0 0.0
2017-Oct-15 02:28N 68°06' E 016°21'0 0.0
2017-Oct-15 01:58N 68°06' E 016°21'2 5.0
2017-Oct-15 01:30N 68°06' E 016°15'5 9.8
2017-Oct-15 01:00N 68°03' E 016°05'2 4.6
2017-Oct-15 00:30N 68°04' E 016°10'5 9.1
2017-Oct-15 00:00N 68°06' E 016°21'3 5.2
2017-Oct-14 23:30N 68°06' E 016°15'5 9.4
2017-Oct-14 23:00N 68°03' E 016°05'2 4.9
2017-Oct-14 22:30N 68°04' E 016°10'5 9.0
2017-Oct-14 22:00N 68°06' E 016°21'2 4.3
2017-Oct-14 21:30N 68°06' E 016°16'510.2
2017-Oct-14 21:00N 68°03' E 016°05'2 4.1
2017-Oct-14 20:30N 68°04' E 016°09'5 9.7
2017-Oct-14 20:00N 68°06' E 016°21'2 4.6
2017-Oct-14 19:30N 68°06' E 016°15'5 9.8
2017-Oct-14 19:00N 68°03' E 016°05'2 4.5
2017-Oct-14 18:30N 68°04' E 016°09'5 9.1
2017-Oct-14 18:00N 68°06' E 016°21'2 4.8
2017-Oct-14 17:30N 68°06' E 016°15'5 9.5
2017-Oct-14 17:00N 68°03' E 016°05'2 4.4
2017-Oct-14 16:30N 68°04' E 016°09'5 9.4
2017-Oct-14 16:00N 68°06' E 016°21'3 6.0
2017-Oct-14 15:30N 68°05' E 016°13'4 8.1
2017-Oct-14 15:00N 68°03' E 016°05'2 4.7
2017-Oct-14 14:30N 68°04' E 016°10'5 9.1
2017-Oct-14 14:00N 68°06' E 016°21'2 5.0
2017-Oct-14 13:30N 68°06' E 016°15'5 9.4
2017-Oct-14 13:00N 68°03' E 016°05'2 4.1
2017-Oct-14 12:30N 68°04' E 016°09'5 9.8
2017-Oct-14 12:00N 68°06' E 016°21'2 4.8
2017-Oct-14 11:30N 68°06' E 016°15'5 9.7
2017-Oct-14 11:00N 68°03' E 016°05'2 4.4
2017-Oct-14 10:30N 68°04' E 016°09'5 9.4
2017-Oct-14 10:00N 68°06' E 016°21'2 4.2
2017-Oct-14 09:30N 68°06' E 016°16'510.0
2017-Oct-14 09:00N 68°03' E 016°05'2 4.1
2017-Oct-14 08:30N 68°04' E 016°09'5 9.7
2017-Oct-14 07:59N 68°06' E 016°21'3 5.2
2017-Oct-14 07:30N 68°06' E 016°15'5 9.4
2017-Oct-14 07:00N 68°03' E 016°05'2 4.1
2017-Oct-14 06:30N 68°04' E 016°09'5 9.6
2017-Oct-14 06:00N 68°06' E 016°21'1 1.1
2017-Oct-14 05:30N 68°06' E 016°20'5 9.5
2017-Oct-14 04:59N 68°04' E 016°08'1 1.6
2017-Oct-14 04:30N 68°04' E 016°09'5 9.6
2017-Oct-14 04:00N 68°06' E 016°21'0 0.0
2017-Oct-14 03:28N 68°06' E 016°21'0 0.0
2017-Oct-14 02:58N 68°06' E 016°21'0 0.0
2017-Oct-14 02:28N 68°06' E 016°21'0 0.0
2017-Oct-14 01:58N 68°06' E 016°21'2 4.7
2017-Oct-14 01:30N 68°06' E 016°16'510.1
2017-Oct-14 01:00N 68°03' E 016°05'2 4.4
2017-Oct-14 00:30N 68°04' E 016°09'5 9.5
2017-Oct-14 00:00N 68°06' E 016°21'2 4.1
2017-Oct-13 23:30N 68°06' E 016°16'510.2
2017-Oct-13 23:00N 68°03' E 016°05'2 4.6
2017-Oct-13 22:30N 68°04' E 016°09'5 9.4
2017-Oct-13 22:00N 68°06' E 016°21'2 4.2
2017-Oct-13 21:30N 68°06' E 016°16'5 9.9
2017-Oct-13 20:59N 68°03' E 016°05'2 4.7
2017-Oct-13 20:30N 68°04' E 016°09'5 9.3
2017-Oct-13 20:00N 68°06' E 016°21'3 5.2
2017-Oct-13 19:30N 68°06' E 016°14'5 9.2
2017-Oct-13 19:00N 68°03' E 016°05'3 5.6
2017-Oct-13 18:30N 68°05' E 016°10'4 8.4
2017-Oct-13 18:00N 68°06' E 016°21'3 7.0
2017-Oct-13 17:30N 68°05' E 016°12'4 7.0
2017-Oct-13 17:00N 68°03' E 016°05'3 5.2
2017-Oct-13 16:30N 68°05' E 016°10'4 8.7
2017-Oct-13 16:00N 68°06' E 016°21'2 5.0
2017-Oct-13 15:30N 68°06' E 016°15'5 9.5
2017-Oct-13 15:00N 68°03' E 016°05'2 4.8
2017-Oct-13 14:30N 68°04' E 016°10'5 8.8
2017-Oct-13 14:00N 68°06' E 016°21'3 5.2
2017-Oct-13 13:30N 68°06' E 016°14'5 9.3
2017-Oct-13 13:00N 68°03' E 016°05'2 4.8
2017-Oct-13 12:30N 68°04' E 016°10'5 8.9
2017-Oct-13 12:00N 68°06' E 016°21'2 4.5
2017-Oct-13 11:30N 68°06' E 016°16'5 9.9
2017-Oct-13 11:00N 68°03' E 016°05'2 4.8
2017-Oct-13 10:30N 68°04' E 016°10'4 9.1
2017-Oct-13 10:00N 68°06' E 016°21'3 5.0
2017-Oct-13 09:29N 68°06' E 016°14'5 9.4
2017-Oct-13 09:00N 68°03' E 016°05'2 4.4
2017-Oct-13 08:30N 68°04' E 016°09'5 9.2
2017-Oct-13 08:00N 68°06' E 016°21'4 0.2
2017-Oct-12 16:24N 68°05' E 016°11'4 9.7
2017-Oct-12 16:00N 68°06' E 016°21'2 4.2
2017-Oct-12 15:30N 68°06' E 016°16'510.3
2017-Oct-12 15:00N 68°03' E 016°05'2 4.1
2017-Oct-12 14:30N 68°04' E 016°09'5 9.6
2017-Oct-12 14:00N 68°06' E 016°21'2 4.7
2017-Oct-12 13:29N 68°06' E 016°15'5 9.9
2017-Oct-12 13:01N 68°03' E 016°05'2 5.0
2017-Oct-12 12:30N 68°05' E 016°10'4 8.5
2017-Oct-12 11:59N 68°06' E 016°21'2 4.8
2017-Oct-12 11:30N 68°06' E 016°15'5 9.7
2017-Oct-12 11:00N 68°03' E 016°05'3 5.5
2017-Oct-12 10:30N 68°05' E 016°10'4 8.3
2017-Oct-12 10:00N 68°06' E 016°21'3 6.1
2017-Oct-12 09:30N 68°06' E 016°13'4 8.4
2017-Oct-12 09:00N 68°03' E 016°05'2 4.4
2017-Oct-12 08:30N 68°04' E 016°09'5 9.1
2017-Oct-12 08:00N 68°06' E 016°21'3 5.2
2017-Oct-12 07:30N 68°06' E 016°15'5 9.4
2017-Oct-12 07:00N 68°03' E 016°05'2 4.1
2017-Oct-12 06:30N 68°04' E 016°09'5 9.8
2017-Oct-12 06:00N 68°06' E 016°21'1 1.9
2017-Oct-12 05:29N 68°06' E 016°19'5 9.6
2017-Oct-12 05:00N 68°04' E 016°07'1 1.9
2017-Oct-12 04:30N 68°04' E 016°09'5 9.9
2017-Oct-12 04:00N 68°06' E 016°21'0 0.0
2017-Oct-12 03:30N 68°06' E 016°21'0 0.0
2017-Oct-12 03:00N 68°06' E 016°21'0 0.0
2017-Oct-12 02:30N 68°06' E 016°21'0 0.0
2017-Oct-12 02:00N 68°06' E 016°21'2 4.4
2017-Oct-12 01:30N 68°06' E 016°15'510.3
2017-Oct-12 01:00N 68°03' E 016°05'2 4.4
2017-Oct-12 00:30N 68°04' E 016°09'5 9.4
2017-Oct-12 00:00N 68°06' E 016°21'2 4.5
2017-Oct-11 23:30N 68°06' E 016°15'5 9.9
2017-Oct-11 23:00N 68°03' E 016°05'2 4.6
2017-Oct-11 22:30N 68°04' E 016°09'5 9.3
2017-Oct-11 22:00N 68°06' E 016°21'2 4.2
2017-Oct-11 21:30N 68°06' E 016°16'510.1
2017-Oct-11 21:00N 68°03' E 016°05'3 5.4
2017-Oct-11 20:30N 68°05' E 016°10'4 8.5
2017-Oct-11 19:59N 68°06' E 016°21'3 5.4
2017-Oct-11 19:30N 68°06' E 016°14'5 9.1
2017-Oct-11 19:00N 68°03' E 016°05'2 4.9
2017-Oct-11 18:31N 68°04' E 016°10'5 8.7
2017-Oct-11 18:00N 68°06' E 016°21'3 7.0
2017-Oct-11 17:30N 68°05' E 016°12'4 7.4
2017-Oct-11 17:00N 68°03' E 016°05'7 0.4
2017-Oct-11 00:00N 68°06' E 016°21'3 5.9
2017-Oct-10 23:30N 68°06' E 016°13'4 8.5
2017-Oct-10 23:00N 68°03' E 016°05'3 5.7
2017-Oct-10 22:30N 68°05' E 016°11'4 8.1
2017-Oct-10 22:00N 68°06' E 016°21'3 5.9
2017-Oct-10 21:30N 68°06' E 016°13'4 8.3
2017-Oct-10 21:00N 68°03' E 016°05'3 5.9
2017-Oct-10 20:30N 68°05' E 016°11'4 8.0
2017-Oct-10 20:00N 68°06' E 016°21'3 5.8
2017-Oct-10 19:30N 68°06' E 016°14'4 8.2
2017-Oct-10 18:59N 68°03' E 016°05'2 4.8
2017-Oct-10 18:29N 68°04' E 016°10'4 9.2
2017-Oct-10 18:00N 68°06' E 016°21'3 5.6
2017-Oct-10 17:30N 68°06' E 016°14'4 8.6
2017-Oct-10 17:00N 68°03' E 016°05'2 4.8
2017-Oct-10 16:31N 68°04' E 016°10'4 8.7
2017-Oct-10 16:00N 68°06' E 016°21'2 5.0
2017-Oct-10 15:30N 68°06' E 016°15'5 9.5
2017-Oct-10 15:00N 68°03' E 016°05'7 6.8
2017-Oct-10 14:01N 68°06' E 016°21'2 3.8
2017-Oct-10 13:30N 68°06' E 016°16'510.1
2017-Oct-10 13:00N 68°03' E 016°05'2 4.0
2017-Oct-10 12:30N 68°04' E 016°09'5 9.8
2017-Oct-10 12:00N 68°06' E 016°21'2 3.9
2017-Oct-10 11:30N 68°06' E 016°16'510.3
2017-Oct-10 11:00N 68°03' E 016°05'2 5.0
2017-Oct-10 10:30N 68°04' E 016°10'4 8.6
2017-Oct-10 10:00N 68°06' E 016°21'2 3.9
2017-Oct-10 09:31N 68°06' E 016°16'510.4
2017-Oct-10 09:00N 68°03' E 016°05'2 3.8
2017-Oct-10 08:30N 68°04' E 016°09'5 9.8
2017-Oct-10 08:00N 68°06' E 016°21'2 4.6
2017-Oct-10 07:30N 68°06' E 016°15'5 9.8
2017-Oct-10 07:00N 68°03' E 016°05'3 5.1
2017-Oct-10 06:30N 68°04' E 016°10'4 8.6
2017-Oct-10 06:00N 68°06' E 016°21'2 3.7
2017-Oct-10 05:30N 68°06' E 016°17'5 9.1
2017-Oct-10 05:00N 68°03' E 016°06'2 3.5
2017-Oct-10 04:30N 68°04' E 016°10'4 8.8
2017-Oct-10 04:00N 68°06' E 016°21'0 0.0
2017-Oct-10 03:30N 68°06' E 016°21'0 0.0
2017-Oct-10 03:00N 68°06' E 016°21'  
Track history (hours):
 
Tides and Currents Weather Stations Pressure Air Temp Water Temp Dewpoint Dewpoint Depression Visibility Wind Speed Wind Dir Waves Ship Positions

Vardehorn

Last reported at 2017-Oct-20 02:59 UTC. Time now 2017-Oct-20 03:29 UTC.
Position N 68°06' E 016°21'.

Length 112 m; draft 3.6 m.

Type: Passenger vessel. MMSI: 259650000.

Date/timePositionNaut miles runAvg speedWind from/ knotsBaromVisibWave heightAir tempDewpointWater temp
2017-Oct-20 02:59N 68°06' E 016°21'0 0.0
2017-Oct-20 02:29N 68°06' E 016°21'0 0.0
2017-Oct-20 01:59N 68°06' E 016°21'3 6.4
2017-Oct-20 01:30N 68°05' E 016°13'4 7.8
2017-Oct-20 01:00N 68°03' E 016°05'2 4.4
2017-Oct-20 00:31N 68°04' E 016°09'5 9.3
2017-Oct-20 00:01N 68°06' E 016°21'2 4.0
2017-Oct-19 23:31N 68°06' E 016°16'510.2
2017-Oct-19 23:00N 68°03' E 016°05'2 4.3
2017-Oct-19 22:30N 68°04' E 016°09'5 9.3
2017-Oct-19 22:00N 68°06' E 016°21'2 3.9
2017-Oct-19 21:31N 68°06' E 016°16'510.3
2017-Oct-19 21:00N 68°03' E 016°05'2 4.9
2017-Oct-19 20:30N 68°04' E 016°10'4 9.0
2017-Oct-19 20:01N 68°06' E 016°21'2 4.2
2017-Oct-19 19:30N 68°06' E 016°16'510.1
2017-Oct-19 19:00N 68°03' E 016°05'2 4.5
2017-Oct-19 18:30N 68°04' E 016°09'5 9.3
2017-Oct-19 18:00N 68°06' E 016°21'2 4.8
2017-Oct-19 17:30N 68°06' E 016°15'5 9.6
2017-Oct-19 17:00N 68°03' E 016°05'2 4.9
2017-Oct-19 16:30N 68°04' E 016°10'4 8.7
2017-Oct-19 16:00N 68°06' E 016°21'2 4.4
2017-Oct-19 15:31N 68°06' E 016°16'5 9.9
2017-Oct-19 15:00N 68°03' E 016°05'2 4.8
2017-Oct-19 14:30N 68°04' E 016°10'4 9.0
2017-Oct-19 14:00N 68°06' E 016°21'2 4.4
2017-Oct-19 13:30N 68°06' E 016°15'5 9.9
2017-Oct-19 13:00N 68°03' E 016°05'3 5.5
2017-Oct-19 12:30N 68°05' E 016°11'4 8.3
2017-Oct-19 12:00N 68°06' E 016°21'2 5.0
2017-Oct-19 11:30N 68°06' E 016°15'5 9.5
2017-Oct-19 11:01N 68°03' E 016°05'2 4.6
2017-Oct-19 10:30N 68°04' E 016°10'5 9.0
2017-Oct-19 10:00N 68°06' E 016°21'2 4.7
2017-Oct-19 09:30N 68°06' E 016°15'5 9.7
2017-Oct-19 09:00N 68°03' E 016°05'2 4.8
2017-Oct-19 08:30N 68°04' E 016°10'4 9.0
2017-Oct-19 08:01N 68°06' E 016°21'3 5.0
2017-Oct-19 07:30N 68°06' E 016°15'5 9.3
2017-Oct-19 07:00N 68°03' E 016°05'2 4.6
2017-Oct-19 06:30N 68°04' E 016°10'5 9.2
2017-Oct-19 06:01N 68°06' E 016°21'1 1.8
2017-Oct-19 05:31N 68°06' E 016°19'510.3
2017-Oct-19 05:01N 68°03' E 016°06'2 3.1
2017-Oct-19 04:30N 68°04' E 016°10'4 8.9
2017-Oct-19 04:00N 68°06' E 016°21'0 0.0
2017-Oct-19 03:28N 68°06' E 016°21'0 0.0
2017-Oct-19 02:55N 68°06' E 016°21'0 0.0
2017-Oct-19 02:28N 68°06' E 016°21'0 0.0
2017-Oct-19 01:58N 68°06' E 016°21'2 4.1
2017-Oct-19 01:31N 68°06' E 016°16'510.4
2017-Oct-19 01:00N 68°03' E 016°05'2 4.7
2017-Oct-19 00:31N 68°04' E 016°10'5 9.1
2017-Oct-19 00:01N 68°06' E 016°21'3 6.5
2017-Oct-18 23:30N 68°05' E 016°13'4 7.6
2017-Oct-18 23:00N 68°03' E 016°05'3 5.5
2017-Oct-18 22:31N 68°05' E 016°11'4 8.1
2017-Oct-18 21:59N 68°06' E 016°21'3 5.4
2017-Oct-18 21:30N 68°06' E 016°14'4 8.7
2017-Oct-18 21:00N 68°03' E 016°05'2 4.7
2017-Oct-18 20:30N 68°04' E 016°10'5 9.2
2017-Oct-18 20:01N 68°06' E 016°21'3 6.3
2017-Oct-18 19:30N 68°05' E 016°13'4 7.7
2017-Oct-18 19:00N 68°03' E 016°05'3 5.8
2017-Oct-18 18:30N 68°05' E 016°11'4 7.9
2017-Oct-18 18:00N 68°06' E 016°21'2 4.9
2017-Oct-18 17:29N 68°06' E 016°15'5 9.7
2017-Oct-18 17:00N 68°03' E 016°05'2 4.7
2017-Oct-18 16:30N 68°04' E 016°10'5 9.1
2017-Oct-18 16:00N 68°06' E 016°21'2 4.5
2017-Oct-18 15:30N 68°06' E 016°15'5 9.8
2017-Oct-18 15:00N 68°03' E 016°05'7 6.7
2017-Oct-18 14:00N 68°06' E 016°21'2 4.6
2017-Oct-18 13:30N 68°06' E 016°15'5 9.9
2017-Oct-18 13:00N 68°03' E 016°05'2 4.8
2017-Oct-18 12:30N 68°04' E 016°10'4 8.9
2017-Oct-18 12:00N 68°06' E 016°21'2 5.0
2017-Oct-18 11:30N 68°06' E 016°15'5 9.3
2017-Oct-18 11:00N 68°03' E 016°05'2 4.6
2017-Oct-18 10:30N 68°04' E 016°10'5 9.1
2017-Oct-18 10:00N 68°06' E 016°21'2 4.4
2017-Oct-18 09:30N 68°06' E 016°16'510.1
2017-Oct-18 09:00N 68°03' E 016°05'2 4.5
2017-Oct-18 08:30N 68°04' E 016°10'5 9.0
2017-Oct-18 08:00N 68°06' E 016°21'2 4.8
2017-Oct-18 07:31N 68°06' E 016°15'5 9.7
2017-Oct-18 07:01N 68°03' E 016°05'2 4.3
2017-Oct-18 06:30N 68°04' E 016°09'5 9.6
2017-Oct-18 06:01N 68°06' E 016°21'1 2.8
2017-Oct-18 05:30N 68°06' E 016°18'510.4
2017-Oct-18 05:00N 68°03' E 016°05'2 4.0
2017-Oct-18 04:30N 68°04' E 016°10'5 9.0
2017-Oct-18 04:00N 68°06' E 016°21'0 0.0
2017-Oct-18 03:29N 68°06' E 016°21'0 0.0
2017-Oct-18 02:59N 68°06' E 016°21'0 0.0
2017-Oct-18 02:29N 68°06' E 016°21'0 0.0
2017-Oct-18 01:59N 68°06' E 016°21'3 5.8
2017-Oct-18 01:29N 68°06' E 016°14'4 8.7
2017-Oct-18 01:00N 68°03' E 016°05'2 4.4
2017-Oct-18 00:30N 68°04' E 016°09'5 9.1
2017-Oct-17 23:59N 68°06' E 016°21'3 6.1
2017-Oct-17 23:30N 68°06' E 016°13'4 8.1
2017-Oct-17 23:00N 68°03' E 016°05'3 6.6
2017-Oct-17 22:30N 68°05' E 016°12'4 7.4
2017-Oct-17 22:00N 68°06' E 016°21'3 5.8
2017-Oct-17 21:30N 68°05' E 016°14'4 8.4
2017-Oct-17 21:00N 68°03' E 016°05'2 4.9
2017-Oct-17 20:30N 68°04' E 016°10'4 8.8
2017-Oct-17 20:00N 68°06' E 016°21'2 4.5
2017-Oct-17 19:30N 68°06' E 016°15'510.0
2017-Oct-17 19:00N 68°03' E 016°05'2 4.3
2017-Oct-17 18:30N 68°04' E 016°09'5 9.4
2017-Oct-17 18:00N 68°06' E 016°21'2 4.7
2017-Oct-17 17:30N 68°06' E 016°15'5 9.8
2017-Oct-17 17:00N 68°03' E 016°05'3 5.1
2017-Oct-17 16:30N 68°05' E 016°10'4 8.8
2017-Oct-17 16:00N 68°06' E 016°21'3 5.7
2017-Oct-17 15:30N 68°06' E 016°14'4 8.4
2017-Oct-17 15:00N 68°03' E 016°05'3 5.9
2017-Oct-17 14:30N 68°05' E 016°11'4 8.0
2017-Oct-17 14:00N 68°06' E 016°21'2 4.6
2017-Oct-17 13:30N 68°06' E 016°15'5 9.9
2017-Oct-17 13:00N 68°03' E 016°05'2 4.9
2017-Oct-17 12:30N 68°05' E 016°10'4 9.1
2017-Oct-17 12:00N 68°06' E 016°21'2 4.8
2017-Oct-17 11:30N 68°06' E 016°15'5 9.4
2017-Oct-17 11:00N 68°03' E 016°05'2 4.6
2017-Oct-17 10:30N 68°04' E 016°10'5 9.2
2017-Oct-17 10:00N 68°06' E 016°21'2 4.9
2017-Oct-17 09:30N 68°06' E 016°15'5 9.5
2017-Oct-17 09:00N 68°03' E 016°05'3 5.1
2017-Oct-17 08:30N 68°05' E 016°10'4 8.7
2017-Oct-17 08:00N 68°06' E 016°21'3 5.4
2017-Oct-17 07:30N 68°06' E 016°14'4 8.8
2017-Oct-17 07:00N 68°03' E 016°05'2 4.5
2017-Oct-17 06:30N 68°04' E 016°09'5 9.3
2017-Oct-17 06:00N 68°06' E 016°21'1 1.1
2017-Oct-17 05:30N 68°05' E 016°20'510.0
2017-Oct-17 05:00N 68°04' E 016°07'1 2.0
2017-Oct-17 04:30N 68°04' E 016°09'5 9.4
2017-Oct-17 04:00N 68°06' E 016°21'0 0.0
2017-Oct-17 03:16N 68°06' E 016°21'0 0.0
2017-Oct-17 02:58N 68°06' E 016°21'0 0.0
2017-Oct-17 02:28N 68°06' E 016°21'0 0.0
2017-Oct-17 01:58N 68°06' E 016°21'3 5.7
2017-Oct-17 01:30N 68°06' E 016°14'4 9.0
2017-Oct-17 01:00N 68°03' E 016°05'2 4.6
2017-Oct-17 00:30N 68°04' E 016°10'5 9.1
2017-Oct-17 00:00N 68°06' E 016°21'3 5.2
2017-Oct-16 23:29N 68°06' E 016°14'4 8.9
2017-Oct-16 23:00N 68°03' E 016°05'2 5.1
2017-Oct-16 22:30N 68°04' E 016°10'4 8.8
2017-Oct-16 22:00N 68°06' E 016°21'3 5.1
2017-Oct-16 21:30N 68°06' E 016°14'5 9.1
2017-Oct-16 21:00N 68°03' E 016°05'3 5.3
2017-Oct-16 20:30N 68°05' E 016°10'4 8.7
2017-Oct-16 20:00N 68°06' E 016°21'3 5.0
2017-Oct-16 19:29N 68°06' E 016°14'5 9.2
2017-Oct-16 18:59N 68°03' E 016°05'2 4.8
2017-Oct-16 18:30N 68°04' E 016°10'5 8.8
2017-Oct-16 17:59N 68°06' E 016°21'3 5.1
2017-Oct-16 17:29N 68°06' E 016°15'5 9.6
2017-Oct-16 17:00N 68°03' E 016°05'2 4.7
2017-Oct-16 16:30N 68°04' E 016°10'5 9.0
2017-Oct-16 16:00N 68°06' E 016°21'2 4.2
2017-Oct-16 15:30N 68°06' E 016°16'510.0
2017-Oct-16 15:00N 68°03' E 016°05'7 6.8
2017-Oct-16 14:00N 68°06' E 016°21'2 5.0
2017-Oct-16 13:30N 68°06' E 016°15'5 9.2
2017-Oct-16 12:59N 68°03' E 016°05'3 5.1
2017-Oct-16 12:30N 68°05' E 016°10'4 8.8
2017-Oct-16 12:00N 68°06' E 016°21'2 4.8
2017-Oct-16 11:30N 68°06' E 016°15'5 9.6
2017-Oct-16 11:00N 68°03' E 016°05'2 4.6
2017-Oct-16 10:30N 68°04' E 016°10'5 8.8
2017-Oct-16 10:00N 68°06' E 016°21'3 5.3
2017-Oct-16 09:30N 68°06' E 016°14'5 8.9
2017-Oct-16 09:00N 68°03' E 016°05'2 5.0
2017-Oct-16 08:30N 68°04' E 016°10'4 8.8
2017-Oct-16 08:00N 68°06' E 016°21'2 5.0
2017-Oct-16 07:30N 68°06' E 016°15'5 9.2
2017-Oct-16 07:00N 68°03' E 016°05'2 4.1
2017-Oct-16 06:30N 68°04' E 016°09'5 9.5
2017-Oct-16 06:00N 68°06' E 016°21'1 1.5
2017-Oct-16 05:30N 68°06' E 016°19'5 9.9
2017-Oct-16 05:00N 68°04' E 016°07'1 1.7
2017-Oct-16 04:30N 68°04' E 016°09'5 9.0
2017-Oct-16 03:58N 68°06' E 016°21'0 0.0
2017-Oct-16 03:28N 68°06' E 016°21'0 0.0
2017-Oct-16 02:58N 68°06' E 016°21'0 0.0
2017-Oct-16 02:25N 68°06' E 016°21'0 0.0
2017-Oct-16 01:58N 68°06' E 016°21'2 4.5
2017-Oct-16 01:30N 68°06' E 016°16'510.1
2017-Oct-16 01:00N 68°03' E 016°05'2 4.0
2017-Oct-16 00:30N 68°04' E 016°09'5 9.9
2017-Oct-16 00:00N 68°06' E 016°21'3 5.0
2017-Oct-15 23:30N 68°06' E 016°15'5 9.5
2017-Oct-15 23:00N 68°03' E 016°05'2 4.2
2017-Oct-15 22:30N 68°04' E 016°09'5 9.5
2017-Oct-15 22:00N 68°06' E 016°21'2 4.7
2017-Oct-15 21:30N 68°06' E 016°15'5 9.9
2017-Oct-15 21:00N 68°03' E 016°05'2 4.3
2017-Oct-15 20:30N 68°04' E 016°09'5 9.6
2017-Oct-15 20:00N 68°06' E 016°21'3 5.1
2017-Oct-15 19:30N 68°06' E 016°14'5 9.2
2017-Oct-15 19:00N 68°03' E 016°05'3 6.4
2017-Oct-15 18:30N 68°05' E 016°11'4 7.6
2017-Oct-15 18:00N 68°06' E 016°21'2 5.0
2017-Oct-15 17:30N 68°06' E 016°15'5 9.4
2017-Oct-15 17:00N 68°03' E 016°05'2 4.7
2017-Oct-15 16:30N 68°04' E 016°10'4 8.8
2017-Oct-15 16:00N 68°06' E 016°21'2 4.4
2017-Oct-15 15:30N 68°06' E 016°16'510.0
2017-Oct-15 15:00N 68°03' E 016°05'7 6.8
2017-Oct-15 14:00N 68°06' E 016°21'2 4.6
2017-Oct-15 13:30N 68°06' E 016°15'5 9.9
2017-Oct-15 13:00N 68°03' E 016°05'2 4.2
2017-Oct-15 12:30N 68°04' E 016°09'5 9.2
2017-Oct-15 11:59N 68°06' E 016°21'2 4.8
2017-Oct-15 11:30N 68°06' E 016°15'5 9.5
2017-Oct-15 11:00N 68°03' E 016°05'2 4.2
2017-Oct-15 10:30N 68°04' E 016°09'5 9.4
2017-Oct-15 09:59N 68°06' E 016°21'3 5.2
2017-Oct-15 09:30N 68°06' E 016°15'5 9.4
2017-Oct-15 09:00N 68°03' E 016°05'2 5.0
2017-Oct-15 08:30N 68°04' E 016°10'4 8.8
2017-Oct-15 08:00N 68°06' E 016°21'3 4.9
2017-Oct-15 07:30N 68°06' E 016°15'5 9.2
2017-Oct-15 07:00N 68°03' E 016°05'2 4.1
2017-Oct-15 06:30N 68°04' E 016°09'5 9.8
2017-Oct-15 06:00N 68°06' E 016°21'1 2.5
2017-Oct-15 05:30N 68°06' E 016°18'4 8.6
2017-Oct-15 05:00N 68°04' E 016°08'1 1.3
2017-Oct-15 04:30N 68°04' E 016°09'5 9.5
2017-Oct-15 03:59N 68°06' E 016°21'0 0.0
2017-Oct-15 03:28N 68°06' E 016°21'0 0.0
2017-Oct-15 02:58N 68°06' E 016°21'0 0.0
2017-Oct-15 02:28N 68°06' E 016°21'0 0.0
2017-Oct-15 01:58N 68°06' E 016°21'2 5.0
2017-Oct-15 01:30N 68°06' E 016°15'5 9.8
2017-Oct-15 01:00N 68°03' E 016°05'2 4.6
2017-Oct-15 00:30N 68°04' E 016°10'5 9.1
2017-Oct-15 00:00N 68°06' E 016°21'3 5.2
2017-Oct-14 23:30N 68°06' E 016°15'5 9.4
2017-Oct-14 23:00N 68°03' E 016°05'2 4.9
2017-Oct-14 22:30N 68°04' E 016°10'5 9.0
2017-Oct-14 22:00N 68°06' E 016°21'2 4.3
2017-Oct-14 21:30N 68°06' E 016°16'510.2
2017-Oct-14 21:00N 68°03' E 016°05'2 4.1
2017-Oct-14 20:30N 68°04' E 016°09'5 9.7
2017-Oct-14 20:00N 68°06' E 016°21'2 4.6
2017-Oct-14 19:30N 68°06' E 016°15'5 9.8
2017-Oct-14 19:00N 68°03' E 016°05'2 4.5
2017-Oct-14 18:30N 68°04' E 016°09'5 9.1
2017-Oct-14 18:00N 68°06' E 016°21'2 4.8
2017-Oct-14 17:30N 68°06' E 016°15'5 9.5
2017-Oct-14 17:00N 68°03' E 016°05'2 4.4
2017-Oct-14 16:30N 68°04' E 016°09'5 9.4
2017-Oct-14 16:00N 68°06' E 016°21'3 6.0
2017-Oct-14 15:30N 68°05' E 016°13'4 8.1
2017-Oct-14 15:00N 68°03' E 016°05'2 4.7
2017-Oct-14 14:30N 68°04' E 016°10'5 9.1
2017-Oct-14 14:00N 68°06' E 016°21'2 5.0
2017-Oct-14 13:30N 68°06' E 016°15'5 9.4
2017-Oct-14 13:00N 68°03' E 016°05'2 4.1
2017-Oct-14 12:30N 68°04' E 016°09'5 9.8
2017-Oct-14 12:00N 68°06' E 016°21'2 4.8
2017-Oct-14 11:30N 68°06' E 016°15'5 9.7
2017-Oct-14 11:00N 68°03' E 016°05'2 4.4
2017-Oct-14 10:30N 68°04' E 016°09'5 9.4
2017-Oct-14 10:00N 68°06' E 016°21'2 4.2
2017-Oct-14 09:30N 68°06' E 016°16'510.0
2017-Oct-14 09:00N 68°03' E 016°05'2 4.1
2017-Oct-14 08:30N 68°04' E 016°09'5 9.7
2017-Oct-14 07:59N 68°06' E 016°21'3 5.2
2017-Oct-14 07:30N 68°06' E 016°15'5 9.4
2017-Oct-14 07:00N 68°03' E 016°05'2 4.1
2017-Oct-14 06:30N 68°04' E 016°09'5 9.6
2017-Oct-14 06:00N 68°06' E 016°21'1 1.1
2017-Oct-14 05:30N 68°06' E 016°20'5 9.5
2017-Oct-14 04:59N 68°04' E 016°08'1 1.6
2017-Oct-14 04:30N 68°04' E 016°09'5 9.6
2017-Oct-14 04:00N 68°06' E 016°21'0 0.0
2017-Oct-14 03:28N 68°06' E 016°21'0 0.0
2017-Oct-14 02:58N 68°06' E 016°21'0 0.0
2017-Oct-14 02:28N 68°06' E 016°21'0 0.0
2017-Oct-14 01:58N 68°06' E 016°21'2 4.7
2017-Oct-14 01:30N 68°06' E 016°16'510.1
2017-Oct-14 01:00N 68°03' E 016°05'2 4.4
2017-Oct-14 00:30N 68°04' E 016°09'5 9.5
2017-Oct-14 00:00N 68°06' E 016°21'2 4.1
2017-Oct-13 23:30N 68°06' E 016°16'510.2
2017-Oct-13 23:00N 68°03' E 016°05'2 4.6
2017-Oct-13 22:30N 68°04' E 016°09'5 9.4
2017-Oct-13 22:00N 68°06' E 016°21'2 4.2
2017-Oct-13 21:30N 68°06' E 016°16'5 9.9
2017-Oct-13 20:59N 68°03' E 016°05'2 4.7
2017-Oct-13 20:30N 68°04' E 016°09'5 9.3
2017-Oct-13 20:00N 68°06' E 016°21'3 5.2
2017-Oct-13 19:30N 68°06' E 016°14'5 9.2
2017-Oct-13 19:00N 68°03' E 016°05'3 5.6
2017-Oct-13 18:30N 68°05' E 016°10'4 8.4
2017-Oct-13 18:00N 68°06' E 016°21'3 7.0
2017-Oct-13 17:30N 68°05' E 016°12'4 7.0
2017-Oct-13 17:00N 68°03' E 016°05'3 5.2
2017-Oct-13 16:30N 68°05' E 016°10'4 8.7
2017-Oct-13 16:00N 68°06' E 016°21'2 5.0
2017-Oct-13 15:30N 68°06' E 016°15'5 9.5
2017-Oct-13 15:00N 68°03' E 016°05'2 4.8
2017-Oct-13 14:30N 68°04' E 016°10'5 8.8
2017-Oct-13 14:00N 68°06' E 016°21'3 5.2
2017-Oct-13 13:30N 68°06' E 016°14'5 9.3
2017-Oct-13 13:00N 68°03' E 016°05'2 4.8
2017-Oct-13 12:30N 68°04' E 016°10'5 8.9
2017-Oct-13 12:00N 68°06' E 016°21'2 4.5
2017-Oct-13 11:30N 68°06' E 016°16'5 9.9
2017-Oct-13 11:00N 68°03' E 016°05'2 4.8
2017-Oct-13 10:30N 68°04' E 016°10'4 9.1
2017-Oct-13 10:00N 68°06' E 016°21'3 5.0
2017-Oct-13 09:29N 68°06' E 016°14'5 9.4
2017-Oct-13 09:00N 68°03' E 016°05'2 4.4
2017-Oct-13 08:30N 68°04' E 016°09'5 9.2
2017-Oct-13 08:00N 68°06' E 016°21'4 0.2
2017-Oct-12 16:24N 68°05' E 016°11'4 9.7
2017-Oct-12 16:00N 68°06' E 016°21'2 4.2
2017-Oct-12 15:30N 68°06' E 016°16'510.3
2017-Oct-12 15:00N 68°03' E 016°05'2 4.1
2017-Oct-12 14:30N 68°04' E 016°09'5 9.6
2017-Oct-12 14:00N 68°06' E 016°21'2 4.7
2017-Oct-12 13:29N 68°06' E 016°15'5 9.9
2017-Oct-12 13:01N 68°03' E 016°05'2 5.0
2017-Oct-12 12:30N 68°05' E 016°10'4 8.5
2017-Oct-12 11:59N 68°06' E 016°21'2 4.8
2017-Oct-12 11:30N 68°06' E 016°15'5 9.7
2017-Oct-12 11:00N 68°03' E 016°05'3 5.5
2017-Oct-12 10:30N 68°05' E 016°10'4 8.3
2017-Oct-12 10:00N 68°06' E 016°21'3 6.1
2017-Oct-12 09:30N 68°06' E 016°13'4 8.4
2017-Oct-12 09:00N 68°03' E 016°05'2 4.4
2017-Oct-12 08:30N 68°04' E 016°09'5 9.1
2017-Oct-12 08:00N 68°06' E 016°21'3 5.2
2017-Oct-12 07:30N 68°06' E 016°15'5 9.4
2017-Oct-12 07:00N 68°03' E 016°05'2 4.1
2017-Oct-12 06:30N 68°04' E 016°09'5 9.8
2017-Oct-12 06:00N 68°06' E 016°21'1 1.9
2017-Oct-12 05:29N 68°06' E 016°19'5 9.6
2017-Oct-12 05:00N 68°04' E 016°07'1 1.9
2017-Oct-12 04:30N 68°04' E 016°09'5 9.9
2017-Oct-12 04:00N 68°06' E 016°21'0 0.0
2017-Oct-12 03:30N 68°06' E 016°21'0 0.0
2017-Oct-12 03:00N 68°06' E 016°21'0 0.0
2017-Oct-12 02:30N 68°06' E 016°21'0 0.0
2017-Oct-12 02:00N 68°06' E 016°21'2 4.4
2017-Oct-12 01:30N 68°06' E 016°15'510.3
2017-Oct-12 01:00N 68°03' E 016°05'2 4.4
2017-Oct-12 00:30N 68°04' E 016°09'5 9.4
2017-Oct-12 00:00N 68°06' E 016°21'2 4.5
2017-Oct-11 23:30N 68°06' E 016°15'5 9.9
2017-Oct-11 23:00N 68°03' E 016°05'2 4.6
2017-Oct-11 22:30N 68°04' E 016°09'5 9.3
2017-Oct-11 22:00N 68°06' E 016°21'2 4.2
2017-Oct-11 21:30N 68°06' E 016°16'510.1
2017-Oct-11 21:00N 68°03' E 016°05'3 5.4
2017-Oct-11 20:30N 68°05' E 016°10'4 8.5
2017-Oct-11 19:59N 68°06' E 016°21'3 5.4
2017-Oct-11 19:30N 68°06' E 016°14'5 9.1
2017-Oct-11 19:00N 68°03' E 016°05'2 4.9
2017-Oct-11 18:31N 68°04' E 016°10'5 8.7
2017-Oct-11 18:00N 68°06' E 016°21'3 7.0
2017-Oct-11 17:30N 68°05' E 016°12'4 7.4
2017-Oct-11 17:00N 68°03' E 016°05'7 0.4
2017-Oct-11 00:00N 68°06' E 016°21'3 5.9
2017-Oct-10 23:30N 68°06' E 016°13'4 8.5
2017-Oct-10 23:00N 68°03' E 016°05'3 5.7
2017-Oct-10 22:30N 68°05' E 016°11'4 8.1
2017-Oct-10 22:00N 68°06' E 016°21'3 5.9
2017-Oct-10 21:30N 68°06' E 016°13'4 8.3
2017-Oct-10 21:00N 68°03' E 016°05'3 5.9
2017-Oct-10 20:30N 68°05' E 016°11'4 8.0
2017-Oct-10 20:00N 68°06' E 016°21'3 5.8
2017-Oct-10 19:30N 68°06' E 016°14'4 8.2
2017-Oct-10 18:59N 68°03' E 016°05'2 4.8
2017-Oct-10 18:29N 68°04' E 016°10'4 9.2
2017-Oct-10 18:00N 68°06' E 016°21'3 5.6
2017-Oct-10 17:30N 68°06' E 016°14'4 8.6
2017-Oct-10 17:00N 68°03' E 016°05'2 4.8
2017-Oct-10 16:31N 68°04' E 016°10'4 8.7
2017-Oct-10 16:00N 68°06' E 016°21'2 5.0
2017-Oct-10 15:30N 68°06' E 016°15'5 9.5
2017-Oct-10 15:00N 68°03' E 016°05'7 6.8
2017-Oct-10 14:01N 68°06' E 016°21'2 3.8
2017-Oct-10 13:30N 68°06' E 016°16'510.1
2017-Oct-10 13:00N 68°03' E 016°05'2 4.0
2017-Oct-10 12:30N 68°04' E 016°09'5 9.8
2017-Oct-10 12:00N 68°06' E 016°21'2 3.9
2017-Oct-10 11:30N 68°06' E 016°16'510.3
2017-Oct-10 11:00N 68°03' E 016°05'2 5.0
2017-Oct-10 10:30N 68°04' E 016°10'4 8.6
2017-Oct-10 10:00N 68°06' E 016°21'2 3.9
2017-Oct-10 09:31N 68°06' E 016°16'510.4
2017-Oct-10 09:00N 68°03' E 016°05'2 3.8
2017-Oct-10 08:30N 68°04' E 016°09'5 9.8
2017-Oct-10 08:00N 68°06' E 016°21'2 4.6
2017-Oct-10 07:30N 68°06' E 016°15'5 9.8
2017-Oct-10 07:00N 68°03' E 016°05'3 5.1
2017-Oct-10 06:30N 68°04' E 016°10'4 8.6
2017-Oct-10 06:00N 68°06' E 016°21'2 3.7
2017-Oct-10 05:30N 68°06' E 016°17'5 9.1
2017-Oct-10 05:00N 68°03' E 016°06'2 3.5
2017-Oct-10 04:30N 68°04' E 016°10'4 8.8
2017-Oct-10 04:00N 68°06' E 016°21'0 0.0
2017-Oct-10 03:30N 68°06' E 016°21'0 0.0
2017-Oct-10 03:00N 68°06' E 016°21'  

Dump ship's entire track history